Overview Statistics Trail Chart Weather Telemetry Raw packets
 

This is the latest recevied weather packets stored in our database for station/object ED3YAB-7. If no packets are shown the sender has not sent any weather packets the latest 10 day(s).

<< 33 34 35 36 37 >>
Time Temp. Humidity Pressure Rain* Wind** Luminosity Snow
1777383128 43.33° C 10% 1017.2 hPa - - - -
1777381936 42.78° C 10% 1017.2 hPa - - - -
1777381928 42.78° C 10% 1017.2 hPa - - - -
1777380735 38.89° C 12% 1017.3 hPa - - - -
1777380728 38.89° C 12% 1017.3 hPa - - - -
1777379528 28.33° C 22% 1017.6 hPa - - - -
1777378336 27.22° C 23% 1017.9 hPa - - - -
1777378328 27.22° C 23% 1017.9 hPa - - - -
1777377135 26.11° C 25% 1018.1 hPa - - - -
1777375927 24.44° C 28% 1018.3 hPa - - - -
1777374735 23.89° C 31% 1018.5 hPa - - - -
1777374727 23.89° C 31% 1018.5 hPa - - - -
1777373527 22.78° C 34% 1018.8 hPa - - - -
1777372327 23.33° C 35% 1018.9 hPa - - - -
1777371127 22.22° C 37% 1019 hPa - - - -
1777369938 21.67° C 39% 1019.1 hPa - - - -
1777369927 21.67° C 39% 1019.1 hPa - - - -
1777368734 21.11° C 43% 1019.2 hPa - - - -
1777368727 21.11° C 43% 1019.2 hPa - - - -
1777367528 20° C 46% 1019.4 hPa - - - -
1777366339 20° C 48% 1019.3 hPa - - - -
1777366328 20° C 48% 1019.3 hPa - - - -
1777365135 20° C 48% 1019.3 hPa - - - -
1777365128 20° C 48% 1019.3 hPa - - - -
1777363935 19.44° C 50% 1019.4 hPa - - - -

* Rain since midnight (hover to see other rain measurements)
** Current wind speed in m/s (hover to see current wind gust speed)